Terminal Aerodrome Forecast
Issued by NWS Cleveland, OH

Home | Current Version | Previous Version | Graphics & Text | Print | Product List | Glossary Off
Versions: 1 2 3 4 5 6 7 8 9 10 11 12 13 14 15 16 17 18 19 20 21 22 23 24 25 26 27

000
FTUS41 KCLE 271135
TAFCLE
TAF
KCLE 271135Z 2712/2818 VRB03KT P6SM SCT025 BKN035
      TEMPO 2712/2715 BKN025
     FM271500 36007KT P6SM BKN035
     FM271900 01006KT P6SM FEW040 SCT250
     FM280200 15003KT P6SM SCT250=

USA.gov is the U.S. government's official web portal to all federal, state and local government web resources and services.